• Join FlightAware (Why Join?)
  • Login
  • US Flag GB Flag 
17:18 EDT


 

Airport Tracker/Info


-or-


 

Live Flight TrackerFlight Track Log ✈ FDX1347 ✈ 09-Jul-2013 ✈ KALB - KMEM

Flight Track Log - Related Links

Times and Time Zones

All times are in EDT time to prevent confusion due to time zone crossing. See the FDX1347 flight status page for this flight to view local times or setup timezone preferences in your user account.

Time Position Orientation Groundspeed Altitude Reporting Facility
EDT Latitude Longitude Course Direction KTS MPH feet Rate Location/Type
22:04 42.7256 -73.8108 173° South 151 174 1,500  Level Boston Center
22:05 42.6672 -73.8011 173° South 237 273 3,000 780 Climbing Boston Center
22:06 42.5986 -73.7967 177° South 267 307 3,100 540 Climbing Boston Center
22:07 42.5400 -73.8264 200° South 260 299 4,100 2,520 Climbing Boston Center
22:08 42.5739 -73.9344 293° West 320 368 8,700 3,060 Climbing Boston Center
22:09 42.6122 -74.0256 300° West 320 368 10,900 2,100 Climbing Boston Center
22:10 42.5667 -74.1542 244° Southwest 306 352 13,000 2,340 Climbing Boston Center
22:11 42.5169 -74.2739 241° Southwest 349 402 15,600 2,700 Climbing Boston Center
22:12 42.4606 -74.4072 240° Southwest 398 458 18,500 2,280 Climbing Boston Center
22:13 42.4083 -74.5294 240° Southwest 409 471 20,200 1,800 Climbing Boston Center
22:14 42.3494 -74.6678 240° Southwest 415 478 22,200 1,920 Climbing Boston Center
22:15 42.2861 -74.8117 239° Southwest 427 491 24,100 1,800 Climbing Boston Center
22:16 42.2203 -74.9578 239° Southwest 446 513 25,900 1,440 Climbing Boston Center
22:17 42.1178 -75.0656 218° Southwest 453 521 27,000 360 Climbing Boston Center
22:19 41.9000 -75.2322 210° Southwest 495 570 27,000 240 Level New York Center
22:20 41.7842 -75.3217 210° Southwest 495 570 27,800 1,140 Climbing New York Center
22:21 41.6958 -75.4464 227° Southwest 473 544 29,400 1,620 Climbing New York Center
22:22 41.6497 -75.6153 250° West 466 536 31,000 1,440 Climbing New York Center
22:23 41.6053 -75.7839 251° West 471 542 32,300 1,380 Climbing New York Center
22:24 41.6122 -75.9592 273° West 463 533 33,900 1,740 Climbing New York Center
22:25 41.6336 -76.1331 279° West 468 539 35,900 1,020 Climbing New York Center
22:26 41.6153 -76.3064 262° West 468 539 36,000  Climbing New York Center
22:27 41.5475 -76.4642 240° Southwest 468 539 36,000  Level New York Center
22:28 41.4842 -76.6058 239° Southwest 487 560 36,000  Level New York Center
22:29 41.4203 -76.7606 241° Southwest 487 560 36,000  Level New York Center
22:30 41.3583 -76.9128 242° Southwest 482 555 36,000  Level New York Center
22:31 41.2958 -77.0700 242° Southwest 482 555 36,000  Level New York Center
22:32 41.2339 -77.2186 241° Southwest 482 555 36,000  Level New York Center
22:33 41.1661 -77.3861 242° Southwest 473 544 36,000  Level New York Center
22:34 41.1036 -77.5369 241° Southwest 473 544 36,000  Level New York Center
22:35 41.0297 -77.7150 241° Southwest 488 562 36,000  Level Cleveland Center
22:36 40.9667 -77.8633 241° Southwest 488 562 36,000 180 Level Cleveland Center
22:37 40.9014 -78.0172 241° Southwest 488 562 36,400 900 Climbing Cleveland Center
22:38 40.8294 -78.1600 236° Southwest 482 555 37,800 1,260 Climbing Cleveland Center
22:39 40.7575 -78.3053 237° Southwest 482 555 39,000 1,080 Climbing Cleveland Center
22:40 40.6850 -78.4447 236° Southwest 476 548 40,000 480 Climbing Cleveland Center
22:41 40.6125 -78.5864 236° Southwest 471 542 40,000  Level Cleveland Center
22:42 40.5419 -78.7281 237° Southwest 471 542 40,000  Level Cleveland Center
22:43 40.4692 -78.8692 236° Southwest 471 542 40,000  Level Cleveland Center
22:44 40.3981 -79.0044 235° Southwest 471 542 40,000  Level Cleveland Center
22:45 40.3269 -79.1453 237° Southwest 471 542 40,000  Level Cleveland Center
22:47 40.1903 -79.4064 236° Southwest 471 542 40,000  Level Cleveland Center
22:48 40.1167 -79.5489 236° Southwest 471 542 40,000  Level Cleveland Center
22:49 40.0428 -79.6883 235° Southwest 471 542 40,000  Level Cleveland Center
22:50 39.9689 -79.8300 236° Southwest 471 542 40,000  Level Cleveland Center
22:51 39.8925 -79.9689 234° Southwest 476 548 40,000  Level Cleveland Center
22:52 39.8161 -80.1100 235° Southwest 476 548 40,000  Level Cleveland Center
22:53 39.7414 -80.2511 235° Southwest 476 548 40,000  Level Cleveland Center
22:54 39.6647 -80.3942 235° Southwest 476 548 40,000  Level Cleveland Center
22:56 39.5653 -80.5719 234° Southwest 479 551 40,000  Level Indianapolis Center
22:57 39.4883 -80.7117 235° Southwest 478 550 40,000  Level Indianapolis Center
22:58 39.3969 -80.8797 235° Southwest 478 550 40,000  Level Indianapolis Center
23:00 39.2611 -81.1689 239° Southwest 475 547 40,000  Level Indianapolis Center
23:01 39.1931 -81.3161 239° Southwest 478 550 40,000  Level Indianapolis Center
23:02 39.1269 -81.4617 240° Southwest 476 548 40,000  Level Indianapolis Center
23:03 39.0600 -81.6072 239° Southwest 476 548 40,000  Level Indianapolis Center
23:04 38.9914 -81.7519 239° Southwest 477 549 40,000  Level Indianapolis Center
23:05 38.9097 -81.9253 239° Southwest 478 550 40,000  Level Indianapolis Center
23:06 38.8419 -82.0700 239° Southwest 477 549 40,000  Level Indianapolis Center
23:07 38.7736 -82.2147 239° Southwest 479 551 40,000  Level Indianapolis Center
23:08 38.7044 -82.3600 239° Southwest 479 551 40,000  Level Indianapolis Center
23:09 38.6386 -82.4997 239° Southwest 476 548 40,000  Level Indianapolis Center
23:10 38.5583 -82.6675 239° Southwest 475 547 40,000  Level Indianapolis Center
23:11 38.4900 -82.8122 239° Southwest 476 548 40,000  Level Indianapolis Center
23:12 38.4194 -82.9569 238° Southwest 478 550 40,000  Level Indianapolis Center
23:13 38.3503 -83.1008 239° Southwest 477 549 40,000  Level Indianapolis Center
23:14 38.2811 -83.2433 238° Southwest 475 547 40,000  Level Indianapolis Center
23:15 38.2119 -83.3867 238° Southwest 474 545 40,000  Level Indianapolis Center
23:16 38.1428 -83.5272 238° Southwest 471 542 40,000  Level Indianapolis Center
23:17 38.0739 -83.6683 238° Southwest 470 541 40,000  Level Indianapolis Center
23:18 37.9925 -83.8325 238° Southwest 471 542 40,000  Level Indianapolis Center
23:19 37.9231 -83.9739 238° Southwest 472 543 40,000  Level Indianapolis Center
23:20 37.8528 -84.1136 238° Southwest 472 543 40,000  Level Indianapolis Center
23:21 37.7831 -84.2528 238° Southwest 469 540 40,000  Level Indianapolis Center
23:22 37.7139 -84.3922 238° Southwest 469 540 40,000  Level Indianapolis Center
23:23 37.6425 -84.5314 237° Southwest 472 543 40,000  Level Indianapolis Center
23:24 37.5733 -84.6692 238° Southwest 469 540 40,000  Level Indianapolis Center
23:25 37.4906 -84.8328 238° Southwest 473 544 40,000  Level Indianapolis Center
23:26 37.4189 -84.9708 237° Southwest 473 544 40,000  Level Indianapolis Center
23:27 37.3478 -85.1108 237° Southwest 477 549 40,000  Level Indianapolis Center
23:28 37.2753 -85.2500 237° Southwest 478 550 40,000  Level Indianapolis Center
23:29 37.2033 -85.3897 237° Southwest 477 549 40,000  Level Indianapolis Center
23:30 37.1336 -85.5261 237° Southwest 470 541 40,000  Level Indianapolis Center
23:31 37.0603 -85.6678 237° Southwest 478 550 40,000  Level Indianapolis Center
23:32 36.9878 -85.8056 237° Southwest 472 543 40,000  Level Indianapolis Center
23:33 36.9150 -85.9433 237° Southwest 471 542 40,000  Level Indianapolis Center
23:34 36.8422 -86.0811 237° Southwest 472 543 40,000  Level Indianapolis Center
23:35 36.7925 -86.1753 237° Southwest 474 545 40,000  Level Memphis Center
23:36 36.7200 -86.3111 236° Southwest 474 545 40,000  Level Memphis Center
23:37 36.6472 -86.4467 236° Southwest 474 545 40,000  Level Memphis Center
23:38 36.5783 -86.5792 237° Southwest 474 545 40,000  Level Memphis Center
23:39 36.5053 -86.7142 236° Southwest 474 545 40,000  Level Memphis Center
23:40 36.4200 -86.8678 235° Southwest 477 549 40,000  Level Memphis Center
23:41 36.3444 -86.9997 235° Southwest 484 557 40,000  Level Memphis Center
23:42 36.2811 -87.1286 239° Southwest 491 565 40,000 -540 Level Memphis Center
23:43 36.2094 -87.2575 235° Southwest 475 547 39,000 -1,140 Descending Memphis Center
23:44 36.1336 -87.3914 235° Southwest 475 547 37,800 -1,200 Descending Memphis Center
23:45 36.0594 -87.5250 236° Southwest 480 552 36,700 -1,020 Descending Memphis Center
23:46 35.9833 -87.6636 236° Southwest 480 552 35,800 -1,020 Descending Memphis Center
23:47 35.9069 -87.7967 235° Southwest 480 552 34,700 -900 Descending Memphis Center
23:48 35.8306 -87.9350 236° Southwest 491 565 34,000 -1,200 Descending Memphis Center
23:49 35.7456 -88.0831 235° Southwest 486 559 32,300 -2,100 Descending Memphis Center
23:50 35.6792 -88.2075 237° Southwest 486 559 29,800 -2,880 Descending Memphis Center
23:51 35.6083 -88.3372 236° Southwest 480 552 26,600 -2,280 Descending Memphis Center
23:52 35.5347 -88.4358 227° Southwest 443 510 25,300 -1,500 Descending Memphis Center
23:53 35.4394 -88.4814 201° Southwest 382 440 23,700 -1,740 Descending Memphis Center
23:54 35.3269 -88.4814 180° South 354 407 21,900 -2,040 Descending Memphis Center
23:55 35.2267 -88.4761 178° South 359 413 19,700 -2,100 Descending Memphis Center
23:56 35.1478 -88.5108 200° South 337 388 17,800 -1,800 Descending Memphis Center
23:57 35.1225 -88.6256 255° West 308 354 16,100 -1,860 Descending Memphis Center
23:58 35.0969 -88.7506 256° West 353 406 14,100 -1,800 Descending Memphis Center
23:59 35.0756 -88.8625 257° West 356 410 12,600 -1,500 Descending Memphis Center
00:00 35.0578 -88.9542 257° West 311 358 11,200 -1,440 Descending Memphis Center
00:01 35.0358 -89.0508 255° West 295 339 9,800 -1,380 Descending Memphis Center
00:02 35.0347 -89.1472 269° West 289 333 8,500 -1,740 Descending Memphis Center
00:03 35.0400 -89.2461 274° West 282 325 6,400 -1,620 Descending Memphis Center
00:04 35.0428 -89.3400 272° West 276 318 5,300 -1,200 Descending Memphis Center
00:05 35.0456 -89.4314 272° West 271 312 4,100 -660 Descending Memphis Center
00:06 35.0461 -89.5200 270° West 271 312 4,000 -60 Descending Memphis Center
00:07 35.0508 -89.6114 274° West 271 312 4,000 -180 Level Memphis Center
00:08 35.0514 -89.6850 271° West 254 292 3,700 -540 Descending Memphis Center
00:09 35.0539 -89.7533 273° West 221 254 3,000 -840 Descending Memphis Center
00:10 35.0542 -89.8192 270° West 195 224 2,100 -660 Descending Memphis Center
00:11 35.0586 -89.8750 276° West 183 211 1,700 -480 Descending Memphis Center
00:12 35.0500 -89.9000 247° West 123 142 1,300 -660 Descending KMEM
00:13 35.0500 -89.9333 270° West 112 129 700 -720 Descending KMEM
00:16 35.0333 -89.9667 270° West  Level FlightAware Approximate
00:23 35.0424 -89.9767 270° West  Level Estimated
00:24 35.0424 -89.9767 270° West  Level Estimated
00:25 35.0424 -89.9767 270° West  Level Estimated
00:26 35.0424 -89.9767 270° West  Level Estimated
00:27 35.0424 -89.9767 270° West  Level Estimated